Time;durP1;ratioP1;P1;durP2;ratioP2;P2;SDS_P1;SDS_P2;PMS_P1;PMS_P2;Temp;Humidity;BMP_temperature;BMP_pressure;BME280_temperature;BME280_humidity;BME280_pressure;Samples;Min_cycle;Max_cycle;Signal;HPM_P1;HPM_P2
2021/06/08 00:02:15;;;;;;;5.45;3.88;;;;;;;;;;5099146;28;20047;-70
2021/06/08 00:04:41;;;;;;;6.38;4.70;;;;;;;;;;5089589;28;20104;-71
2021/06/08 00:07:07;;;;;;;6.07;3.92;;;;;;;;;;5089463;28;20028;-71
2021/06/08 00:09:33;;;;;;;6.07;3.65;;;;;;;;;;5102204;28;20110;-71
2021/06/08 00:11:59;;;;;;;7.97;3.50;;;;;;;;;;5089450;28;20490;-71
2021/06/08 00:14:25;;;;;;;10.40;4.15;;;;;;;;;;5089463;28;20044;-71
2021/06/08 00:16:51;;;;;;;6.30;3.85;;;;;;;;;;5103148;28;20503;-71
2021/06/08 00:19:17;;;;;;;8.63;3.92;;;;;;;;;;5095104;28;20490;-71
2021/06/08 00:21:43;;;;;;;6.25;4.03;;;;;;;;;;5093782;28;20032;-71
2021/06/08 00:24:10;;;;;;;6.30;3.75;;;;;;;;;;5109807;28;20027;-72
2021/06/08 00:26:36;;;;;;;6.72;3.70;;;;;;;;;;5109673;28;20152;-70
2021/06/08 00:29:02;;;;;;;10.25;3.85;;;;;;;;;;5108415;28;20107;-70
2021/06/08 00:31:28;;;;;;;6.45;3.63;;;;;;;;;;5106915;28;20088;-71
2021/06/08 00:33:54;;;;;;;6.35;4.00;;;;;;;;;;5089518;28;20035;-71
2021/06/08 00:36:21;;;;;;;7.95;4.00;;;;;;;;;;5075843;28;20024;-70
2021/06/08 00:38:47;;;;;;;10.73;3.85;;;;;;;;;;5095753;28;20032;-71
2021/06/08 00:41:13;;;;;;;5.82;3.42;;;;;;;;;;5110721;28;20039;-72
2021/06/08 00:43:39;;;;;;;6.25;3.60;;;;;;;;;;5105915;28;20529;-72
2021/06/08 00:46:05;;;;;;;6.60;4.35;;;;;;;;;;5102180;28;20145;-71
2021/06/08 00:48:31;;;;;;;5.78;3.80;;;;;;;;;;5098313;28;20107;-71
2021/06/08 00:50:58;;;;;;;4.38;3.97;;;;;;;;;;5103210;28;20103;-71
2021/06/08 00:53:24;;;;;;;4.38;3.45;;;;;;;;;;5088824;28;20032;-73
2021/06/08 00:55:53;;;;;;;7.38;4.03;;;;;;;;;;5093313;28;20059;-71
2021/06/08 00:58:19;;;;;;;7.70;4.07;;;;;;;;;;5092392;28;20024;-72
2021/06/08 01:00:45;;;;;;;7.65;3.88;;;;;;;;;;5088953;28;20601;-72
2021/06/08 01:03:11;;;;;;;5.47;3.30;;;;;;;;;;5106598;28;20027;-72
2021/06/08 01:05:38;;;;;;;9.10;4.18;;;;;;;;;;5102711;28;20032;-70
2021/06/08 01:08:04;;;;;;;7.20;3.97;;;;;;;;;;5098627;28;20069;-71
2021/06/08 01:10:30;;;;;;;7.50;3.80;;;;;;;;;;5110040;28;20028;-71
2021/06/08 01:12:56;;;;;;;5.05;3.75;;;;;;;;;;5097374;28;20442;-70
2021/06/08 01:15:23;;;;;;;5.90;4.00;;;;;;;;;;5103573;28;20126;-73
2021/06/08 01:17:50;;;;;;;9.27;4.15;;;;;;;;;;5107475;28;20027;-72
2021/06/08 01:20:17;;;;;;;9.02;4.65;;;;;;;;;;5107635;28;20047;-72
2021/06/08 01:22:44;;;;;;;8.55;4.25;;;;;;;;;;5095643;28;20178;-71
2021/06/08 01:25:10;;;;;;;5.57;4.00;;;;;;;;;;5089192;28;20016;-72
2021/06/08 01:27:37;;;;;;;7.95;4.90;;;;;;;;;;5092248;28;20044;-71
2021/06/08 01:30:04;;;;;;;11.23;4.88;;;;;;;;;;5090577;28;20038;-72
2021/06/08 01:32:32;;;;;;;6.70;4.45;;;;;;;;;;5092044;28;20031;-72
2021/06/08 01:34:58;;;;;;;8.90;3.70;;;;;;;;;;5098771;28;20028;-71
2021/06/08 01:37:25;;;;;;;9.07;5.05;;;;;;;;;;5095106;28;20036;-70
2021/06/08 01:39:51;;;;;;;6.15;4.38;;;;;;;;;;5090001;28;20035;-72
2021/06/08 01:42:18;;;;;;;6.00;3.95;;;;;;;;;;5097607;28;20023;-71
2021/06/08 01:44:44;;;;;;;10.98;4.28;;;;;;;;;;5109680;28;20106;-71
2021/06/08 01:47:11;;;;;;;7.38;4.05;;;;;;;;;;5101774;28;20024;-69
2021/06/08 01:49:38;;;;;;;7.95;4.38;;;;;;;;;;5089430;28;20034;-72
2021/06/08 01:52:04;;;;;;;8.98;4.55;;;;;;;;;;5089313;28;20057;-72
2021/06/08 01:54:36;;;;;;;6.97;3.72;;;;;;;;;;5078765;28;20076;-71
2021/06/08 01:57:05;;;;;;;5.18;3.63;;;;;;;;;;5101686;28;20039;-72
2021/06/08 01:59:44;;;;;;;9.77;4.10;;;;;;;;;;5101105;28;20054;-72
2021/06/08 02:02:13;;;;;;;8.50;3.83;;;;;;;;;;5088055;28;20031;-72
2021/06/08 02:04:43;;;;;;;7.47;4.63;;;;;;;;;;5088985;28;20032;-72
2021/06/08 02:07:24;;;;;;;7.88;4.47;;;;;;;;;;5092485;28;20036;-74
2021/06/08 02:10:02;;;;;;;5.32;3.63;;;;;;;;;;5092819;28;20434;-72
2021/06/08 02:12:29;;;;;;;8.77;3.83;;;;;;;;;;5091504;28;20086;-71
2021/06/08 02:15:04;;;;;;;7.80;4.40;;;;;;;;;;5101455;28;20134;-72
2021/06/08 02:17:41;;;;;;;7.18;4.18;;;;;;;;;;5091441;28;20040;-72
2021/06/08 02:20:10;;;;;;;8.68;3.92;;;;;;;;;;5087626;28;20058;-71
2021/06/08 02:22:38;;;;;;;10.73;4.18;;;;;;;;;;5110517;28;20426;-71
2021/06/08 02:25:04;;;;;;;7.38;4.82;;;;;;;;;;5112251;28;20077;-71
2021/06/08 02:27:31;;;;;;;8.27;3.80;;;;;;;;;;5094077;28;20048;-71
2021/06/08 02:29:57;;;;;;;9.80;4.07;;;;;;;;;;5092249;28;20386;-72
2021/06/08 02:32:23;;;;;;;8.00;4.00;;;;;;;;;;5099299;28;20028;-72
2021/06/08 02:34:49;;;;;;;9.95;3.83;;;;;;;;;;5100506;28;20058;-72
2021/06/08 02:37:17;;;;;;;8.20;4.63;;;;;;;;;;5110822;28;20039;-72
2021/06/08 02:39:44;;;;;;;7.93;4.35;;;;;;;;;;5091585;28;20410;-73
2021/06/08 02:42:11;;;;;;;6.85;3.95;;;;;;;;;;5093222;28;20047;-72
2021/06/08 02:44:38;;;;;;;8.77;4.30;;;;;;;;;;5092467;28;20148;-70
2021/06/08 02:47:04;;;;;;;6.97;3.95;;;;;;;;;;5107581;27;20027;-71
2021/06/08 02:49:32;;;;;;;5.15;3.95;;;;;;;;;;5091454;28;20141;-71
2021/06/08 02:51:59;;;;;;;8.00;3.83;;;;;;;;;;5107175;28;20016;-70
2021/06/08 02:54:25;;;;;;;7.43;4.22;;;;;;;;;;5109590;28;20564;-71
2021/06/08 02:56:52;;;;;;;5.78;4.13;;;;;;;;;;5092416;28;20107;-72
2021/06/08 02:59:18;;;;;;;8.43;3.80;;;;;;;;;;5091548;28;20039;-72
2021/06/08 03:01:48;;;;;;;8.07;4.28;;;;;;;;;;5091354;28;20035;-72
2021/06/08 03:04:15;;;;;;;10.38;4.13;;;;;;;;;;5090877;28;20096;-72
2021/06/08 03:06:44;;;;;;;13.60;4.07;;;;;;;;;;5091683;28;20088;-72
2021/06/08 03:09:15;;;;;;;7.38;3.75;;;;;;;;;;5091232;28;20070;-72
2021/06/08 03:11:51;;;;;;;5.45;3.47;;;;;;;;;;5106909;28;20029;-70
2021/06/08 03:14:19;;;;;;;6.38;4.00;;;;;;;;;;5095363;28;20453;-71
2021/06/08 03:16:49;;;;;;;7.30;4.40;;;;;;;;;;5110135;28;20047;-72
2021/06/08 03:19:18;;;;;;;7.75;3.97;;;;;;;;;;5090796;28;20513;-72
2021/06/08 03:21:44;;;;;;;8.32;4.10;;;;;;;;;;5110239;28;20394;-72
2021/06/08 03:24:14;;;;;;;6.82;3.90;;;;;;;;;;5094157;28;20088;-72
2021/06/08 03:26:43;;;;;;;12.05;4.85;;;;;;;;;;5091006;28;20622;-72
2021/06/08 03:29:10;;;;;;;9.45;4.45;;;;;;;;;;5091105;28;20032;-70
2021/06/08 03:31:37;;;;;;;4.78;4.03;;;;;;;;;;5089740;28;20035;-73
2021/06/08 03:34:04;;;;;;;7.82;4.35;;;;;;;;;;5094588;28;20074;-70
2021/06/08 03:36:30;;;;;;;5.28;4.30;;;;;;;;;;5091174;28;20077;-71
2021/06/08 03:38:57;;;;;;;7.43;4.38;;;;;;;;;;5090125;28;20028;-71
2021/06/08 03:41:23;;;;;;;8.23;4.55;;;;;;;;;;5096117;28;20032;-71
2021/06/08 03:43:50;;;;;;;6.70;4.50;;;;;;;;;;5110388;28;20035;-72
2021/06/08 03:46:17;;;;;;;10.68;4.60;;;;;;;;;;5094475;28;20028;-73
2021/06/08 03:48:43;;;;;;;7.45;4.88;;;;;;;;;;5110491;28;20036;-73
2021/06/08 03:51:10;;;;;;;10.10;4.57;;;;;;;;;;5110122;28;20051;-70
2021/06/08 03:53:38;;;;;;;10.70;6.30;;;;;;;;;;5110560;28;20028;-71
2021/06/08 03:56:05;;;;;;;10.77;4.60;;;;;;;;;;5103509;28;20028;-71
2021/06/08 03:58:32;;;;;;;11.70;5.20;;;;;;;;;;5110185;28;20063;-73
2021/06/08 04:00:59;;;;;;;9.45;5.05;;;;;;;;;;5096082;28;20032;-72
2021/06/08 04:03:26;;;;;;;9.48;4.80;;;;;;;;;;5101869;28;20443;-72
2021/06/08 04:05:54;;;;;;;6.63;4.10;;;;;;;;;;5081695;28;20080;-72
2021/06/08 04:08:20;;;;;;;7.20;4.80;;;;;;;;;;5090417;28;20024;-71
2021/06/08 04:10:46;;;;;;;6.65;4.10;;;;;;;;;;5110290;28;20019;-71
2021/06/08 04:13:12;;;;;;;7.40;4.18;;;;;;;;;;5098250;28;20503;-72
2021/06/08 04:15:39;;;;;;;11.95;4.72;;;;;;;;;;5099986;28;20047;-74
2021/06/08 04:18:08;;;;;;;6.60;4.32;;;;;;;;;;5109305;28;20059;-73
2021/06/08 04:20:35;;;;;;;10.48;4.45;;;;;;;;;;5107293;28;20109;-73
2021/06/08 04:23:01;;;;;;;8.60;5.10;;;;;;;;;;5109507;28;20108;-72
2021/06/08 04:25:28;;;;;;;8.50;4.43;;;;;;;;;;5100550;28;20492;-71
2021/06/08 04:27:54;;;;;;;8.73;4.38;;;;;;;;;;5092810;28;20035;-70
2021/06/08 04:30:21;;;;;;;8.55;4.55;;;;;;;;;;5103745;28;20035;-72
2021/06/08 04:32:48;;;;;;;5.60;3.70;;;;;;;;;;5108336;28;20038;-74
2021/06/08 04:35:14;;;;;;;9.35;4.22;;;;;;;;;;5102904;28;20390;-73
2021/06/08 04:37:40;;;;;;;8.20;4.40;;;;;;;;;;5102082;28;20027;-71
2021/06/08 04:40:08;;;;;;;6.47;4.10;;;;;;;;;;5108844;28;20032;-73
2021/06/08 04:42:36;;;;;;;4.60;3.80;;;;;;;;;;5109654;28;20080;-71
2021/06/08 04:45:02;;;;;;;11.88;5.00;;;;;;;;;;5107716;28;20114;-72
2021/06/08 04:47:28;;;;;;;6.70;3.80;;;;;;;;;;5079260;28;20540;-72
2021/06/08 04:49:54;;;;;;;6.63;3.88;;;;;;;;;;5089596;28;20020;-73
2021/06/08 04:52:20;;;;;;;5.85;4.00;;;;;;;;;;5092756;28;20058;-72
2021/06/08 04:54:46;;;;;;;5.72;4.13;;;;;;;;;;5098171;28;20050;-72
2021/06/08 04:57:14;;;;;;;5.55;3.60;;;;;;;;;;5107704;28;20028;-71
2021/06/08 04:59:46;;;;;;;6.43;3.45;;;;;;;;;;5106417;28;20085;-71
2021/06/08 05:02:13;;;;;;;6.82;3.65;;;;;;;;;;5070742;28;20043;-72
2021/06/08 05:04:40;;;;;;;6.13;3.63;;;;;;;;;;5091153;28;20386;-72
2021/06/08 05:07:08;;;;;;;5.07;3.50;;;;;;;;;;5089959;28;20028;-71
2021/06/08 05:09:37;;;;;;;4.38;3.55;;;;;;;;;;5088842;28;20063;-72
2021/06/08 05:12:05;;;;;;;4.35;3.72;;;;;;;;;;5089042;28;20073;-71
2021/06/08 05:14:32;;;;;;;4.60;3.47;;;;;;;;;;5089022;28;20028;-73
2021/06/08 05:16:59;;;;;;;11.95;3.83;;;;;;;;;;5088744;28;20036;-72
2021/06/08 05:19:26;;;;;;;3.78;3.47;;;;;;;;;;5089043;28;20032;-71
2021/06/08 05:21:53;;;;;;;5.57;3.53;;;;;;;;;;5088908;28;20734;-71
2021/06/08 05:24:19;;;;;;;5.50;3.75;;;;;;;;;;5092332;28;20496;-71
2021/06/08 05:26:47;;;;;;;3.85;3.45;;;;;;;;;;5097556;28;20028;-72
2021/06/08 05:29:16;;;;;;;5.30;3.22;;;;;;;;;;5095987;28;20028;-72
2021/06/08 05:31:42;;;;;;;5.47;3.05;;;;;;;;;;5088631;28;20107;-73
2021/06/08 05:34:08;;;;;;;4.43;3.47;;;;;;;;;;5090159;28;20089;-71
2021/06/08 05:36:36;;;;;;;5.43;3.30;;;;;;;;;;5088587;28;20102;-71
2021/06/08 05:39:03;;;;;;;3.88;3.22;;;;;;;;;;5091185;28;20051;-72
2021/06/08 05:41:29;;;;;;;6.60;3.50;;;;;;;;;;5110922;28;20027;-70
2021/06/08 05:43:55;;;;;;;4.30;3.03;;;;;;;;;;5106800;28;20023;-70
2021/06/08 05:46:21;;;;;;;4.05;3.38;;;;;;;;;;5093222;28;20024;-72
2021/06/08 05:48:48;;;;;;;6.88;3.33;;;;;;;;;;5090636;28;20030;-72
2021/06/08 05:51:14;;;;;;;5.68;3.03;;;;;;;;;;5091024;28;20027;-71
2021/06/08 05:53:42;;;;;;;3.78;3.03;;;;;;;;;;5110820;28;20478;-69
2021/06/08 05:56:08;;;;;;;4.82;3.13;;;;;;;;;;5101363;28;20067;-70
2021/06/08 05:58:35;;;;;;;4.85;3.45;;;;;;;;;;5090764;28;20053;-71
2021/06/08 06:01:02;;;;;;;5.63;3.55;;;;;;;;;;5091286;28;20059;-68
2021/06/08 06:03:28;;;;;;;3.55;3.20;;;;;;;;;;5100773;28;20035;-72
2021/06/08 06:05:55;;;;;;;4.63;3.30;;;;;;;;;;5099138;28;20449;-73
2021/06/08 06:08:22;;;;;;;3.70;3.20;;;;;;;;;;5095228;28;20031;-74
2021/06/08 06:10:48;;;;;;;4.88;3.10;;;;;;;;;;5107030;28;20028;-73
2021/06/08 06:13:18;;;;;;;3.30;3.00;;;;;;;;;;5110688;28;20035;-72
2021/06/08 06:15:47;;;;;;;3.92;2.75;;;;;;;;;;5098581;28;20786;-72
2021/06/08 06:18:14;;;;;;;3.42;2.90;;;;;;;;;;5110680;28;20042;-70
2021/06/08 06:20:41;;;;;;;3.53;2.92;;;;;;;;;;5108353;28;20125;-70
2021/06/08 06:23:07;;;;;;;5.10;2.42;;;;;;;;;;5094631;28;20063;-72
2021/06/08 06:25:33;;;;;;;3.80;2.90;;;;;;;;;;5091424;28;20036;-71
2021/06/08 06:27:59;;;;;;;2.97;2.38;;;;;;;;;;5090664;28;20024;-73
2021/06/08 06:30:25;;;;;;;4.55;2.55;;;;;;;;;;5091617;28;20390;-74
2021/06/08 06:32:51;;;;;;;5.40;2.97;;;;;;;;;;5092037;28;20052;-71
2021/06/08 06:35:18;;;;;;;4.43;2.67;;;;;;;;;;5105258;28;20023;-73
2021/06/08 06:37:44;;;;;;;4.53;2.40;;;;;;;;;;5091956;28;20031;-73
2021/06/08 06:40:12;;;;;;;3.53;2.90;;;;;;;;;;5091485;28;20077;-72
2021/06/08 06:42:43;;;;;;;3.85;2.50;;;;;;;;;;5091980;28;20320;-72
2021/06/08 06:45:10;;;;;;;3.17;2.63;;;;;;;;;;5092084;28;20742;-74
2021/06/08 06:47:37;;;;;;;3.60;2.50;;;;;;;;;;5091727;28;20107;-71
2021/06/08 06:50:07;;;;;;;2.85;2.40;;;;;;;;;;5091818;28;20024;-72
2021/06/08 06:52:34;;;;;;;3.13;2.42;;;;;;;;;;5101536;28;20027;-73
2021/06/08 06:55:00;;;;;;;2.80;2.50;;;;;;;;;;5111738;28;20073;-69
2021/06/08 06:57:26;;;;;;;2.60;2.20;;;;;;;;;;5091282;28;20438;-73
2021/06/08 06:59:53;;;;;;;2.60;2.35;;;;;;;;;;5106294;28;20041;-74
2021/06/08 07:02:21;;;;;;;2.83;2.45;;;;;;;;;;5096817;28;20049;-72
2021/06/08 07:04:47;;;;;;;2.60;2.40;;;;;;;;;;5107333;28;20423;-72
2021/06/08 07:07:18;;;;;;;4.35;2.80;;;;;;;;;;5110864;28;20516;-71
2021/06/08 07:09:45;;;;;;;4.05;2.33;;;;;;;;;;5105158;28;20038;-71
2021/06/08 07:12:12;;;;;;;5.75;2.70;;;;;;;;;;5091917;28;20020;-74
2021/06/08 07:14:40;;;;;;;3.58;2.80;;;;;;;;;;5106517;28;20101;-71
2021/06/08 07:17:06;;;;;;;3.55;2.65;;;;;;;;;;5092411;28;20043;-73
2021/06/08 07:19:34;;;;;;;5.15;2.85;;;;;;;;;;5095261;28;20036;-71
2021/06/08 07:22:00;;;;;;;4.22;2.75;;;;;;;;;;5090738;28;20039;-71
2021/06/08 07:24:27;;;;;;;3.03;2.60;;;;;;;;;;5101243;28;20139;-73
2021/06/08 07:26:54;;;;;;;2.95;2.50;;;;;;;;;;5097291;28;20032;-72
2021/06/08 07:29:20;;;;;;;4.18;2.90;;;;;;;;;;5104168;28;20028;-72
2021/06/08 07:31:58;;;;;;;5.55;3.20;;;;;;;;;;5101614;28;20043;-72
2021/06/08 07:34:40;;;;;;;3.03;2.72;;;;;;;;;;5100799;28;20020;-72
2021/06/08 07:37:07;;;;;;;3.13;2.58;;;;;;;;;;5090765;28;20060;-72
2021/06/08 07:39:40;;;;;;;5.50;2.90;;;;;;;;;;5098337;28;20027;-73
2021/06/08 07:42:11;;;;;;;4.68;3.00;;;;;;;;;;5101991;28;20024;-72
2021/06/08 07:44:49;;;;;;;4.85;2.90;;;;;;;;;;5102364;28;20028;-70
2021/06/08 07:47:17;;;;;;;4.80;2.85;;;;;;;;;;5109166;28;20051;-71
2021/06/08 07:49:43;;;;;;;6.10;2.75;;;;;;;;;;5091038;28;20578;-71
2021/06/08 07:52:10;;;;;;;5.03;2.83;;;;;;;;;;5090899;28;20116;-71
2021/06/08 07:54:38;;;;;;;4.30;3.03;;;;;;;;;;5109307;28;20127;-72
2021/06/08 07:57:04;;;;;;;3.97;2.88;;;;;;;;;;5110073;28;20081;-74
2021/06/08 07:59:31;;;;;;;3.90;3.38;;;;;;;;;;5091252;28;20148;-71
2021/06/08 08:01:57;;;;;;;5.10;3.78;;;;;;;;;;5091756;28;20118;-72
2021/06/08 08:04:23;;;;;;;4.90;2.75;;;;;;;;;;5090001;28;20394;-71
2021/06/08 08:06:50;;;;;;;3.95;3.00;;;;;;;;;;5090230;28;20073;-74
2021/06/08 08:09:17;;;;;;;7.40;3.22;;;;;;;;;;5101370;28;20024;-72
2021/06/08 08:11:45;;;;;;;3.58;2.72;;;;;;;;;;5108712;28;20549;-72
2021/06/08 08:14:12;;;;;;;5.55;3.17;;;;;;;;;;5101997;28;20042;-72
2021/06/08 08:16:40;;;;;;;4.35;2.63;;;;;;;;;;5093536;28;20049;-73
2021/06/08 08:19:06;;;;;;;5.53;2.97;;;;;;;;;;5099822;28;20078;-73
2021/06/08 08:21:32;;;;;;;5.28;2.83;;;;;;;;;;5090355;28;20025;-72
2021/06/08 08:23:59;;;;;;;3.88;2.60;;;;;;;;;;5107153;28;20575;-72
2021/06/08 08:26:25;;;;;;;3.83;2.95;;;;;;;;;;5103860;28;20023;-71
2021/06/08 08:28:57;;;;;;;6.88;3.08;;;;;;;;;;5098423;28;20075;-71
2021/06/08 08:31:27;;;;;;;6.90;3.22;;;;;;;;;;5090191;28;20020;-73
2021/06/08 08:33:53;;;;;;;4.90;2.90;;;;;;;;;;5099060;28;20027;-70
2021/06/08 08:36:19;;;;;;;3.40;2.50;;;;;;;;;;5096373;28;20048;-72
2021/06/08 08:38:45;;;;;;;4.25;2.58;;;;;;;;;;5089485;28;20055;-72
2021/06/08 08:41:11;;;;;;;5.00;2.88;;;;;;;;;;5090287;28;20063;-72
2021/06/08 08:43:42;;;;;;;5.80;3.53;;;;;;;;;;5072627;28;20457;-71
2021/06/08 08:46:08;;;;;;;4.63;2.60;;;;;;;;;;5089695;28;20024;-72
2021/06/08 08:48:34;;;;;;;4.00;2.42;;;;;;;;;;5100166;28;20031;-70
2021/06/08 08:51:02;;;;;;;4.95;2.70;;;;;;;;;;5095755;28;20055;-71
2021/06/08 08:53:28;;;;;;;4.18;2.42;;;;;;;;;;5102924;28;20043;-71
2021/06/08 08:55:55;;;;;;;3.85;2.60;;;;;;;;;;5096838;28;20028;-71
2021/06/08 08:58:25;;;;;;;3.63;2.60;;;;;;;;;;5099427;28;20027;-71
2021/06/08 09:00:51;;;;;;;5.53;2.60;;;;;;;;;;5091259;28;20036;-71
2021/06/08 09:03:18;;;;;;;5.38;3.00;;;;;;;;;;5098526;28;20437;-72
2021/06/08 09:05:44;;;;;;;5.38;2.80;;;;;;;;;;5101869;28;20060;-73
2021/06/08 09:08:11;;;;;;;3.13;2.40;;;;;;;;;;5097882;28;20035;-72
2021/06/08 09:10:39;;;;;;;3.03;2.40;;;;;;;;;;5106340;28;20032;-73
2021/06/08 09:13:05;;;;;;;3.88;2.42;;;;;;;;;;5091862;28;20025;-73
2021/06/08 09:15:33;;;;;;;5.95;2.85;;;;;;;;;;5099565;28;20071;-73
2021/06/08 09:17:59;;;;;;;5.47;2.83;;;;;;;;;;5087323;28;20028;-71
2021/06/08 09:20:26;;;;;;;3.63;2.80;;;;;;;;;;5092720;28;20020;-72
2021/06/08 09:22:56;;;;;;;3.28;2.95;;;;;;;;;;5093214;28;20035;-73
2021/06/08 09:25:38;;;;;;;5.93;2.83;;;;;;;;;;5095874;28;20031;-73
2021/06/08 09:28:24;;;;;;;2.65;2.40;;;;;;;;;;5098605;28;20054;-74
2021/06/08 09:30:56;;;;;;;4.13;2.50;;;;;;;;;;5106998;28;20074;-71
2021/06/08 09:33:22;;;;;;;4.25;2.85;;;;;;;;;;5107297;28;20055;-71
2021/06/08 09:35:59;;;;;;;3.03;2.20;;;;;;;;;;5104821;28;20111;-72
2021/06/08 09:38:35;;;;;;;2.80;2.00;;;;;;;;;;5092950;28;20028;-73
2021/06/08 09:41:22;;;;;;;5.07;2.22;;;;;;;;;;5089507;28;20093;-72
2021/06/08 09:43:49;;;;;;;5.20;2.25;;;;;;;;;;5097661;28;20023;-72
2021/06/08 09:46:15;;;;;;;3.17;2.08;;;;;;;;;;5092944;28;20103;-73
2021/06/08 09:48:51;;;;;;;2.55;2.22;;;;;;;;;;5089748;28;20072;-71
2021/06/08 09:51:17;;;;;;;4.00;2.40;;;;;;;;;;5075204;28;20372;-73
2021/06/08 09:53:44;;;;;;;3.40;2.42;;;;;;;;;;5105576;28;20059;-73
2021/06/08 09:56:10;;;;;;;2.72;2.28;;;;;;;;;;5088642;28;20100;-75
2021/06/08 09:58:44;;;;;;;2.53;2.28;;;;;;;;;;5108744;28;20028;-70
2021/06/08 10:01:21;;;;;;;3.63;2.40;;;;;;;;;;5107880;28;20031;-71
2021/06/08 10:03:50;;;;;;;3.03;2.72;;;;;;;;;;5107188;28;20281;-71
2021/06/08 10:06:23;;;;;;;2.47;2.28;;;;;;;;;;5100348;28;20028;-73
2021/06/08 10:08:54;;;;;;;2.63;2.20;;;;;;;;;;5108480;28;20024;-71
2021/06/08 10:11:22;;;;;;;2.35;2.15;;;;;;;;;;5091710;28;20028;-70
2021/06/08 10:13:49;;;;;;;3.65;2.17;;;;;;;;;;5093556;28;20043;-71
2021/06/08 10:16:32;;;;;;;2.40;2.05;;;;;;;;;;5095008;28;20063;-74
2021/06/08 10:18:59;;;;;;;3.95;2.20;;;;;;;;;;5088778;28;20035;-74
2021/06/08 10:21:36;;;;;;;3.67;2.40;;;;;;;;;;5092363;28;20028;-71
2021/06/08 10:24:04;;;;;;;5.97;2.50;;;;;;;;;;5089328;28;20039;-73
2021/06/08 10:26:33;;;;;;;2.65;2.45;;;;;;;;;;5097247;28;20111;-71
2021/06/08 10:29:01;;;;;;;4.10;2.40;;;;;;;;;;5103119;28;20016;-73
2021/06/08 10:31:27;;;;;;;5.20;2.35;;;;;;;;;;5103200;28;20387;-73
2021/06/08 10:33:54;;;;;;;2.85;2.47;;;;;;;;;;5096878;28;20094;-74
2021/06/08 10:36:20;;;;;;;5.03;2.30;;;;;;;;;;5111277;28;20034;-70
2021/06/08 10:38:47;;;;;;;2.88;2.15;;;;;;;;;;5112125;28;20034;-71
2021/06/08 10:41:13;;;;;;;2.88;2.40;;;;;;;;;;5095995;28;20032;-72
2021/06/08 10:43:39;;;;;;;4.07;1.90;;;;;;;;;;5102463;28;20055;-74
2021/06/08 10:46:05;;;;;;;3.15;2.00;;;;;;;;;;5092141;28;20038;-72
2021/06/08 10:48:38;;;;;;;3.22;2.03;;;;;;;;;;5095102;28;20051;-71
2021/06/08 10:51:12;;;;;;;3.67;2.33;;;;;;;;;;5092757;28;20123;-72
2021/06/08 10:53:40;;;;;;;5.03;2.17;;;;;;;;;;5091962;28;20024;-74
2021/06/08 10:56:41;;;;;;;3.25;2.80;;;;;;;;;;5111160;28;20080;-72
2021/06/08 10:59:09;;;;;;;3.15;2.10;;;;;;;;;;5016547;28;20037;-72
2021/06/08 11:01:38;;;;;;;2.85;1.85;;;;;;;;;;5079642;28;20501;-72
2021/06/08 11:04:06;;;;;;;3.42;1.85;;;;;;;;;;5099583;28;20047;-71
2021/06/08 11:06:38;;;;;;;2.50;2.20;;;;;;;;;;5096413;28;20024;-73
2021/06/08 11:09:07;;;;;;;2.50;2.10;;;;;;;;;;5106624;28;20063;-73
2021/06/08 11:11:43;;;;;;;3.38;2.00;;;;;;;;;;5108021;28;20051;-72
2021/06/08 11:14:29;;;;;;;2.45;1.90;;;;;;;;;;5110177;28;20054;-72
2021/06/08 11:17:01;;;;;;;2.20;2.00;;;;;;;;;;5103726;28;20082;-71
2021/06/08 11:19:47;;;;;;;2.70;1.88;;;;;;;;;;5101443;28;20046;-71
2021/06/08 11:22:14;;;;;;;2.20;2.00;;;;;;;;;;5091248;28;20455;-72
2021/06/08 11:24:41;;;;;;;4.40;3.13;;;;;;;;;;5098200;28;20039;-74
2021/06/08 11:27:08;;;;;;;2.03;1.88;;;;;;;;;;5110123;28;20024;-72
2021/06/08 11:29:46;;;;;;;2.28;2.08;;;;;;;;;;5106940;28;20160;-71
2021/06/08 11:32:34;;;;;;;2.80;2.15;;;;;;;;;;5109444;28;20465;-73
2021/06/08 11:35:09;;;;;;;3.35;2.05;;;;;;;;;;5091068;28;20038;-71
2021/06/08 11:37:55;;;;;;;2.28;1.80;;;;;;;;;;5090916;28;20032;-72
2021/06/08 11:40:39;;;;;;;5.20;2.63;;;;;;;;;;5092413;28;20097;-72
2021/06/08 11:43:05;;;;;;;2.38;1.90;;;;;;;;;;5096820;28;20026;-72
2021/06/08 11:45:33;;;;;;;3.30;2.20;;;;;;;;;;5099249;28;20034;-74
2021/06/08 11:47:59;;;;;;;2.10;1.85;;;;;;;;;;5108350;28;20098;-72
2021/06/08 11:50:38;;;;;;;3.85;1.70;;;;;;;;;;5097327;28;20034;-72
2021/06/08 11:53:14;;;;;;;1.92;1.73;;;;;;;;;;5095509;28;20569;-71
2021/06/08 11:55:40;;;;;;;3.92;1.98;;;;;;;;;;5072641;28;20032;-71
2021/06/08 11:58:26;;;;;;;2.15;1.58;;;;;;;;;;5094331;28;20034;-72
2021/06/08 12:00:53;;;;;;;3.72;1.70;;;;;;;;;;5104004;28;20040;-72
2021/06/08 12:03:29;;;;;;;2.25;1.70;;;;;;;;;;5088593;28;20024;-72
2021/06/08 12:05:55;;;;;;;3.50;1.80;;;;;;;;;;5099129;28;20110;-73
2021/06/08 12:08:25;;;;;;;2.40;1.70;;;;;;;;;;5096725;28;20040;-72
2021/06/08 12:10:55;;;;;;;2.05;1.85;;;;;;;;;;5096582;28;20020;-71
2021/06/08 12:13:29;;;;;;;3.90;1.88;;;;;;;;;;5093824;28;20024;-72
2021/06/08 12:15:56;;;;;;;2.55;1.70;;;;;;;;;;5096156;28;20044;-72
2021/06/08 12:18:35;;;;;;;2.10;1.90;;;;;;;;;;5099870;28;20576;-72
2021/06/08 12:21:02;;;;;;;1.85;1.75;;;;;;;;;;5085585;28;20039;-72
2021/06/08 12:23:29;;;;;;;2.30;1.90;;;;;;;;;;5090503;28;20027;-72
2021/06/08 12:26:11;;;;;;;2.10;1.90;;;;;;;;;;5109593;28;20103;-72
2021/06/08 12:28:37;;;;;;;2.85;1.95;;;;;;;;;;5109598;28;20098;-73
2021/06/08 12:31:13;;;;;;;1.95;1.77;;;;;;;;;;5109581;28;20075;-72
2021/06/08 12:33:40;;;;;;;5.25;1.90;;;;;;;;;;5104521;28;20103;-73
2021/06/08 12:36:06;;;;;;;3.53;1.90;;;;;;;;;;5082473;28;20034;-73
2021/06/08 12:38:33;;;;;;;2.05;1.90;;;;;;;;;;5091131;28;20735;-72
2021/06/08 12:41:00;;;;;;;2.35;2.08;;;;;;;;;;5090753;28;20035;-72
2021/06/08 12:43:26;;;;;;;2.10;1.90;;;;;;;;;;5095402;28;20032;-71
2021/06/08 12:45:57;;;;;;;4.18;2.20;;;;;;;;;;5097098;28;20027;-72
2021/06/08 12:48:23;;;;;;;3.20;1.92;;;;;;;;;;5094077;28;20031;-72
2021/06/08 12:50:49;;;;;;;3.22;2.30;;;;;;;;;;5104313;28;20027;-71
2021/06/08 12:53:20;;;;;;;3.88;2.08;;;;;;;;;;5094069;28;20069;-72
2021/06/08 12:55:49;;;;;;;2.95;2.17;;;;;;;;;;5094207;28;20028;-72
2021/06/08 12:58:17;;;;;;;4.47;2.60;;;;;;;;;;5085587;28;20032;-73
2021/06/08 13:00:43;;;;;;;2.67;1.90;;;;;;;;;;5089219;28;20409;-73
2021/06/08 13:03:10;;;;;;;2.70;1.90;;;;;;;;;;5089266;28;20056;-73
2021/06/08 13:05:37;;;;;;;3.05;2.05;;;;;;;;;;5093128;28;20039;-71
2021/06/08 13:08:04;;;;;;;1.95;1.75;;;;;;;;;;5095225;28;20059;-70
2021/06/08 13:10:33;;;;;;;2.15;1.95;;;;;;;;;;5089584;28;20054;-71
2021/06/08 13:13:04;;;;;;;2.78;2.05;;;;;;;;;;5094402;28;20038;-72
2021/06/08 13:15:38;;;;;;;3.85;2.20;;;;;;;;;;5100824;28;20047;-69
2021/06/08 13:18:09;;;;;;;2.57;2.00;;;;;;;;;;5105191;28;20028;-68
2021/06/08 13:20:40;;;;;;;2.60;2.25;;;;;;;;;;5097424;28;20999;-73
2021/06/08 13:23:07;;;;;;;3.67;2.20;;;;;;;;;;5106615;28;20592;-69
2021/06/08 13:25:33;;;;;;;2.15;1.95;;;;;;;;;;5097138;28;20736;-69
2021/06/08 13:28:00;;;;;;;4.10;2.30;;;;;;;;;;5094174;28;20521;-72
2021/06/08 13:30:27;;;;;;;3.10;2.40;;;;;;;;;;5093258;28;20387;-71
2021/06/08 13:33:04;;;;;;;3.15;2.30;;;;;;;;;;5095896;28;20043;-70
2021/06/08 13:35:34;;;;;;;2.85;2.25;;;;;;;;;;5095518;28;20167;-73
2021/06/08 13:38:01;;;;;;;3.45;2.72;;;;;;;;;;5109428;28;20058;-70
2021/06/08 13:40:32;;;;;;;3.58;2.40;;;;;;;;;;5102637;28;20516;-71
2021/06/08 13:42:58;;;;;;;2.63;2.30;;;;;;;;;;5100587;28;20482;-71
2021/06/08 13:45:39;;;;;;;2.80;1.98;;;;;;;;;;5108543;28;20047;-70
2021/06/08 13:48:19;;;;;;;2.47;1.90;;;;;;;;;;5090158;28;20032;-70
2021/06/08 13:50:46;;;;;;;4.65;2.30;;;;;;;;;;5104340;28;20023;-70
2021/06/08 13:53:23;;;;;;;3.20;2.08;;;;;;;;;;5105382;28;20032;-71
2021/06/08 14:01:33;;;;;;;5.10;2.35;;;;;;;;;;5090913;28;20043;-70
2021/06/08 14:04:03;;;;;;;3.90;2.30;;;;;;;;;;5092383;28;20032;-70
2021/06/08 14:06:30;;;;;;;3.30;2.20;;;;;;;;;;5092343;28;20024;-69
2021/06/08 14:09:16;;;;;;;3.20;2.75;;;;;;;;;;5104560;28;20102;-70
2021/06/08 14:11:44;;;;;;;2.83;2.20;;;;;;;;;;5099202;28;20016;-69
2021/06/08 14:14:12;;;;;;;7.95;3.95;;;;;;;;;;5092263;28;20034;-68
2021/06/08 14:16:39;;;;;;;3.63;2.35;;;;;;;;;;5095733;28;20044;-69
2021/06/08 14:19:05;;;;;;;2.58;2.30;;;;;;;;;;5099200;28;20122;-70
2021/06/08 14:21:32;;;;;;;2.72;2.42;;;;;;;;;;5109268;28;20118;-71
2021/06/08 14:23:58;;;;;;;2.70;2.17;;;;;;;;;;5094342;28;20165;-69
2021/06/08 14:26:28;;;;;;;2.30;2.10;;;;;;;;;;5093457;28;20028;-69
2021/06/08 14:28:58;;;;;;;2.47;2.28;;;;;;;;;;5092392;28;20020;-70
2021/06/08 14:31:24;;;;;;;2.70;2.40;;;;;;;;;;5092602;28;20080;-70
2021/06/08 14:33:50;;;;;;;4.32;2.63;;;;;;;;;;5104206;28;20032;-70
2021/06/08 14:36:16;;;;;;;4.18;2.42;;;;;;;;;;5112306;28;20027;-69
2021/06/08 14:38:42;;;;;;;3.08;2.78;;;;;;;;;;5097891;28;20468;-69
2021/06/08 14:41:09;;;;;;;5.60;2.40;;;;;;;;;;5092228;28;20038;-72
2021/06/08 14:43:35;;;;;;;4.40;2.42;;;;;;;;;;5099393;28;20035;-71
2021/06/08 14:46:01;;;;;;;4.60;2.30;;;;;;;;;;5098332;27;20020;-71
2021/06/08 14:48:28;;;;;;;2.92;2.40;;;;;;;;;;5108337;28;20051;-69
2021/06/08 14:50:54;;;;;;;3.03;2.65;;;;;;;;;;5091730;28;20070;-70
2021/06/08 14:53:20;;;;;;;3.78;2.55;;;;;;;;;;5103929;28;20138;-72
2021/06/08 14:55:48;;;;;;;3.78;2.83;;;;;;;;;;5110936;28;20016;-71
2021/06/08 14:58:14;;;;;;;3.45;2.85;;;;;;;;;;5091916;28;20027;-70